sensor_id;sensor_type;location;lat;lon;timestamp;temperature;humidity
40528;DHT22;26230;51.268;6.534;2023-11-19T00:00:00;12.1;100
40528;DHT22;26230;51.268;6.534;2023-11-19T00:01:00;12.1;100
40528;DHT22;26230;51.268;6.534;2023-11-19T00:02:00;12.1;100
40528;DHT22;26230;51.268;6.534;2023-11-19T00:03:00;12.1;100
40528;DHT22;26230;51.268;6.534;2023-11-19T00:04:00;12.1;100
40528;DHT22;26230;51.268;6.534;2023-11-19T00:05:00;12.1;100
40528;DHT22;26230;51.268;6.534;2023-11-19T00:06:00;12.1;100
40528;DHT22;26230;51.268;6.534;2023-11-19T00:07:00;12.1;100
40528;DHT22;26230;51.268;6.534;2023-11-19T00:08:00;12.2;100
40528;DHT22;26230;51.268;6.534;2023-11-19T00:09:00;12.2;100
40528;DHT22;26230;51.268;6.534;2023-11-19T00:10:00;12.2;100
40528;DHT22;26230;51.268;6.534;2023-11-19T00:11:00;12.2;100
40528;DHT22;26230;51.268;6.534;2023-11-19T00:12:00;12.2;100
40528;DHT22;26230;51.268;6.534;2023-11-19T00:13:01;12.2;100
40528;DHT22;26230;51.268;6.534;2023-11-19T00:14:00;12.2;100
40528;DHT22;26230;51.268;6.534;2023-11-19T00:15:00;12.2;100
40528;DHT22;26230;51.268;6.534;2023-11-19T00:16:00;12.2;100
40528;DHT22;26230;51.268;6.534;2023-11-19T00:17:00;12.2;100
40528;DHT22;26230;51.268;6.534;2023-11-19T00:18:00;12.3;100
40528;DHT22;26230;51.268;6.534;2023-11-19T00:19:00;12.3;100
40528;DHT22;26230;51.268;6.534;2023-11-19T00:20:00;12.3;100
40528;DHT22;26230;51.268;6.534;2023-11-19T00:21:00;12.3;100
40528;DHT22;26230;51.268;6.534;2023-11-19T00:22:00;12.3;100
40528;DHT22;26230;51.268;6.534;2023-11-19T00:23:00;12.3;100
40528;DHT22;26230;51.268;6.534;2023-11-19T00:24:00;12.3;100
40528;DHT22;26230;51.268;6.534;2023-11-19T00:25:00;12.3;100
40528;DHT22;26230;51.268;6.534;2023-11-19T00:26:00;12.3;100
40528;DHT22;26230;51.268;6.534;2023-11-19T00:27:00;12.3;100
40528;DHT22;26230;51.268;6.534;2023-11-19T00:28:00;12.4;100
40528;DHT22;26230;51.268;6.534;2023-11-19T00:29:00;12.4;100
40528;DHT22;26230;51.268;6.534;2023-11-19T00:30:00;12.4;100
40528;DHT22;26230;51.268;6.534;2023-11-19T00:31:00;12.4;100
40528;DHT22;26230;51.268;6.534;2023-11-19T00:32:00;12.4;100
40528;DHT22;26230;51.268;6.534;2023-11-19T00:33:01;12.4;100
40528;DHT22;26230;51.268;6.534;2023-11-19T00:34:00;12.4;100
40528;DHT22;26230;51.268;6.534;2023-11-19T00:35:00;12.4;100
40528;DHT22;26230;51.268;6.534;2023-11-19T00:36:00;12.4;100
40528;DHT22;26230;51.268;6.534;2023-11-19T00:37:00;12.4;100
40528;DHT22;26230;51.268;6.534;2023-11-19T00:38:00;12.5;100
40528;DHT22;26230;51.268;6.534;2023-11-19T00:39:00;12.5;100
40528;DHT22;26230;51.268;6.534;2023-11-19T00:40:00;12.5;100
40528;DHT22;26230;51.268;6.534;2023-11-19T00:41:00;12.5;100
40528;DHT22;26230;51.268;6.534;2023-11-19T00:42:00;12.5;100
40528;DHT22;26230;51.268;6.534;2023-11-19T00:43:00;12.5;100
40528;DHT22;26230;51.268;6.534;2023-11-19T00:44:00;12.5;100
40528;DHT22;26230;51.268;6.534;2023-11-19T00:45:00;12.5;100
40528;DHT22;26230;51.268;6.534;2023-11-19T00:46:00;12.5;100
40528;DHT22;26230;51.268;6.534;2023-11-19T00:47:00;12.5;100
40528;DHT22;26230;51.268;6.534;2023-11-19T00:48:00;12.5;100
40528;DHT22;26230;51.268;6.534;2023-11-19T00:49:00;12.5;100
40528;DHT22;26230;51.268;6.534;2023-11-19T00:50:01;12.5;100
40528;DHT22;26230;51.268;6.534;2023-11-19T00:51:00;12.5;100
40528;DHT22;26230;51.268;6.534;2023-11-19T00:52:00;12.5;100
40528;DHT22;26230;51.268;6.534;2023-11-19T00:53:00;12.4;100
40528;DHT22;26230;51.268;6.534;2023-11-19T00:55:00;12.4;100
40528;DHT22;26230;51.268;6.534;2023-11-19T01:00:00;12.3;100
40528;DHT22;26230;51.268;6.534;2023-11-19T01:05:00;12.4;100
40528;DHT22;26230;51.268;6.534;2023-11-19T01:10:00;12.4;100
40528;DHT22;26230;51.268;6.534;2023-11-19T01:15:01;12.4;100
40528;DHT22;26230;51.268;6.534;2023-11-19T01:20:00;12.4;100
40528;DHT22;26230;51.268;6.534;2023-11-19T01:25:00;12.5;100
40528;DHT22;26230;51.268;6.534;2023-11-19T01:30:01;12.5;100
40528;DHT22;26230;51.268;6.534;2023-11-19T01:35:00;12.6;100
40528;DHT22;26230;51.268;6.534;2023-11-19T01:40:00;12.6;100
40528;DHT22;26230;51.268;6.534;2023-11-19T01:45:00;12.7;100
40528;DHT22;26230;51.268;6.534;2023-11-19T01:50:00;12.7;100
40528;DHT22;26230;51.268;6.534;2023-11-19T01:55:00;12.8;100
40528;DHT22;26230;51.268;6.534;2023-11-19T02:00:00;12.7;100
40528;DHT22;26230;51.268;6.534;2023-11-19T02:05:00;12.8;100
40528;DHT22;26230;51.268;6.534;2023-11-19T02:10:00;12.8;100
40528;DHT22;26230;51.268;6.534;2023-11-19T02:15:00;12.9;100
40528;DHT22;26230;51.268;6.534;2023-11-19T02:20:00;12.8;100
40528;DHT22;26230;51.268;6.534;2023-11-19T02:25:00;12.9;100
40528;DHT22;26230;51.268;6.534;2023-11-19T02:30:00;12.9;100
40528;DHT22;26230;51.268;6.534;2023-11-19T02:35:01;12.9;100
40528;DHT22;26230;51.268;6.534;2023-11-19T02:40:00;12.9;100
40528;DHT22;26230;51.268;6.534;2023-11-19T02:45:00;12.9;100
40528;DHT22;26230;51.268;6.534;2023-11-19T02:50:01;13.0;100
40528;DHT22;26230;51.268;6.534;2023-11-19T02:55:00;13.0;100
40528;DHT22;26230;51.268;6.534;2023-11-19T03:00:00;13.1;100
40528;DHT22;26230;51.268;6.534;2023-11-19T03:05:00;13.1;100
40528;DHT22;26230;51.268;6.534;2023-11-19T03:10:01;13.0;100
40528;DHT22;26230;51.268;6.534;2023-11-19T03:15:00;13.1;100
40528;DHT22;26230;51.268;6.534;2023-11-19T03:20:00;13.2;100
40528;DHT22;26230;51.268;6.534;2023-11-19T03:25:00;13.2;100
40528;DHT22;26230;51.268;6.534;2023-11-19T03:30:00;13.2;100
40528;DHT22;26230;51.268;6.534;2023-11-19T03:35:00;13.2;100
40528;DHT22;26230;51.268;6.534;2023-11-19T03:40:00;13.3;100
40528;DHT22;26230;51.268;6.534;2023-11-19T03:45:00;13.2;100
40528;DHT22;26230;51.268;6.534;2023-11-19T03:50:00;13.1;100
40528;DHT22;26230;51.268;6.534;2023-11-19T03:55:00;13.1;100
40528;DHT22;26230;51.268;6.534;2023-11-19T04:00:00;13.1;100
40528;DHT22;26230;51.268;6.534;2023-11-19T04:05:00;12.9;100
40528;DHT22;26230;51.268;6.534;2023-11-19T04:10:00;13.0;100
40528;DHT22;26230;51.268;6.534;2023-11-19T04:15:00;12.9;100
40528;DHT22;26230;51.268;6.534;2023-11-19T04:20:00;12.8;100
40528;DHT22;26230;51.268;6.534;2023-11-19T04:25:00;12.8;100
40528;DHT22;26230;51.268;6.534;2023-11-19T04:30:00;12.8;100
40528;DHT22;26230;51.268;6.534;2023-11-19T04:35:00;12.8;100
40528;DHT22;26230;51.268;6.534;2023-11-19T04:40:00;12.7;100
40528;DHT22;26230;51.268;6.534;2023-11-19T04:45:00;12.6;100
40528;DHT22;26230;51.268;6.534;2023-11-19T04:50:00;12.6;100
40528;DHT22;26230;51.268;6.534;2023-11-19T04:55:00;12.6;100
40528;DHT22;26230;51.268;6.534;2023-11-19T05:00:00;12.6;100
40528;DHT22;26230;51.268;6.534;2023-11-19T05:05:01;12.6;100
40528;DHT22;26230;51.268;6.534;2023-11-19T05:10:00;12.7;100
40528;DHT22;26230;51.268;6.534;2023-11-19T05:15:00;12.7;100
40528;DHT22;26230;51.268;6.534;2023-11-19T05:20:00;12.6;100
40528;DHT22;26230;51.268;6.534;2023-11-19T05:25:00;12.6;100
40528;DHT22;26230;51.268;6.534;2023-11-19T05:30:00;12.7;100
40528;DHT22;26230;51.268;6.534;2023-11-19T05:35:00;12.7;100
40528;DHT22;26230;51.268;6.534;2023-11-19T05:40:00;12.7;100
40528;DHT22;26230;51.268;6.534;2023-11-19T05:45:00;12.7;100
40528;DHT22;26230;51.268;6.534;2023-11-19T05:50:00;12.6;100
40528;DHT22;26230;51.268;6.534;2023-11-19T05:55:00;12.6;100
40528;DHT22;26230;51.268;6.534;2023-11-19T06:00:00;12.7;100
40528;DHT22;26230;51.268;6.534;2023-11-19T06:05:00;12.6;100
40528;DHT22;26230;51.268;6.534;2023-11-19T06:10:01;12.6;100
40528;DHT22;26230;51.268;6.534;2023-11-19T06:15:00;12.6;100
40528;DHT22;26230;51.268;6.534;2023-11-19T06:20:00;12.5;100
40528;DHT22;26230;51.268;6.534;2023-11-19T06:25:00;12.4;100
40528;DHT22;26230;51.268;6.534;2023-11-19T06:30:00;12.5;100
40528;DHT22;26230;51.268;6.534;2023-11-19T06:35:00;12.4;100
40528;DHT22;26230;51.268;6.534;2023-11-19T06:40:00;12.3;100
40528;DHT22;26230;51.268;6.534;2023-11-19T06:45:00;12.3;100
40528;DHT22;26230;51.268;6.534;2023-11-19T06:50:00;12.3;100
40528;DHT22;26230;51.268;6.534;2023-11-19T06:55:00;12.2;100
40528;DHT22;26230;51.268;6.534;2023-11-19T07:00:00;12.2;100
40528;DHT22;26230;51.268;6.534;2023-11-19T07:05:00;12.1;100
40528;DHT22;26230;51.268;6.534;2023-11-19T07:10:00;12.1;100
40528;DHT22;26230;51.268;6.534;2023-11-19T07:15:00;12.1;100
40528;DHT22;26230;51.268;6.534;2023-11-19T07:20:00;12.0;100
40528;DHT22;26230;51.268;6.534;2023-11-19T07:25:00;12.0;100
40528;DHT22;26230;51.268;6.534;2023-11-19T07:30:00;11.9;100
40528;DHT22;26230;51.268;6.534;2023-11-19T07:35:00;11.9;100
40528;DHT22;26230;51.268;6.534;2023-11-19T07:40:00;11.9;100
40528;DHT22;26230;51.268;6.534;2023-11-19T07:45:00;12.0;100
40528;DHT22;26230;51.268;6.534;2023-11-19T07:50:00;11.9;100
40528;DHT22;26230;51.268;6.534;2023-11-19T07:55:00;12.0;100
40528;DHT22;26230;51.268;6.534;2023-11-19T08:00:00;11.9;100
40528;DHT22;26230;51.268;6.534;2023-11-19T08:05:00;12.0;100
40528;DHT22;26230;51.268;6.534;2023-11-19T08:10:00;12.0;100
40528;DHT22;26230;51.268;6.534;2023-11-19T08:15:00;12.0;100
40528;DHT22;26230;51.268;6.534;2023-11-19T08:20:00;12.0;100
40528;DHT22;26230;51.268;6.534;2023-11-19T08:25:00;12.1;100
40528;DHT22;26230;51.268;6.534;2023-11-19T08:30:00;12.2;100
40528;DHT22;26230;51.268;6.534;2023-11-19T08:35:00;12.1;100
40528;DHT22;26230;51.268;6.534;2023-11-19T08:40:00;12.2;100
40528;DHT22;26230;51.268;6.534;2023-11-19T08:45:00;12.3;100
40528;DHT22;26230;51.268;6.534;2023-11-19T08:50:00;12.3;100
40528;DHT22;26230;51.268;6.534;2023-11-19T08:55:00;12.3;100
40528;DHT22;26230;51.268;6.534;2023-11-19T09:00:00;12.4;100
40528;DHT22;26230;51.268;6.534;2023-11-19T09:05:00;12.5;100
40528;DHT22;26230;51.268;6.534;2023-11-19T09:10:00;12.5;100
40528;DHT22;26230;51.268;6.534;2023-11-19T09:15:00;12.6;100
40528;DHT22;26230;51.268;6.534;2023-11-19T09:20:00;12.6;100
40528;DHT22;26230;51.268;6.534;2023-11-19T09:25:00;12.7;100
40528;DHT22;26230;51.268;6.534;2023-11-19T09:30:00;12.7;100
40528;DHT22;26230;51.268;6.534;2023-11-19T09:35:00;12.8;100
40528;DHT22;26230;51.268;6.534;2023-11-19T09:40:00;12.9;100
40528;DHT22;26230;51.268;6.534;2023-11-19T09:45:00;12.9;100
40528;DHT22;26230;51.268;6.534;2023-11-19T09:50:00;12.8;100
40528;DHT22;26230;51.268;6.534;2023-11-19T09:55:00;12.8;100
40528;DHT22;26230;51.268;6.534;2023-11-19T10:00:01;12.9;100
40528;DHT22;26230;51.268;6.534;2023-11-19T10:05:00;13.0;100
40528;DHT22;26230;51.268;6.534;2023-11-19T10:10:01;13.1;100
40528;DHT22;26230;51.268;6.534;2023-11-19T10:15:00;13.2;100
40528;DHT22;26230;51.268;6.534;2023-11-19T10:20:00;13.1;100
40528;DHT22;26230;51.268;6.534;2023-11-19T10:25:00;13.1;100
40528;DHT22;26230;51.268;6.534;2023-11-19T10:30:00;13.3;100
40528;DHT22;26230;51.268;6.534;2023-11-19T10:35:07;13.3;100
40528;DHT22;26230;51.268;6.534;2023-11-19T10:40:01;13.3;100
40528;DHT22;26230;51.268;6.534;2023-11-19T10:45:00;13.3;100
40528;DHT22;26230;51.268;6.534;2023-11-19T10:50:00;13.3;100
40528;DHT22;26230;51.268;6.534;2023-11-19T10:55:00;13.2;100
40528;DHT22;26230;51.268;6.534;2023-11-19T11:00:01;13.1;100
40528;DHT22;26230;51.268;6.534;2023-11-19T11:05:00;13.2;100
40528;DHT22;26230;51.268;6.534;2023-11-19T11:10:01;13.4;100
40528;DHT22;26230;51.268;6.534;2023-11-19T11:15:00;13.5;100
40528;DHT22;26230;51.268;6.534;2023-11-19T11:20:00;13.5;100
40528;DHT22;26230;51.268;6.534;2023-11-19T11:40:01;13.5;100
40528;DHT22;26230;51.268;6.534;2023-11-19T11:45:01;13.5;100
40528;DHT22;26230;51.268;6.534;2023-11-19T11:50:05;13.5;100
40528;DHT22;26230;51.268;6.534;2023-11-19T11:55:07;13.4;100
40528;DHT22;26230;51.268;6.534;2023-11-19T12:00:01;13.5;100
40528;DHT22;26230;51.268;6.534;2023-11-19T12:05:00;13.7;100
40528;DHT22;26230;51.268;6.534;2023-11-19T12:10:08;13.9;100
40528;DHT22;26230;51.268;6.534;2023-11-19T12:20:00;13.9;100
40528;DHT22;26230;51.268;6.534;2023-11-19T12:25:00;13.8;100
40528;DHT22;26230;51.268;6.534;2023-11-19T12:30:01;13.6;100
40528;DHT22;26230;51.268;6.534;2023-11-19T12:35:00;13.5;100
40528;DHT22;26230;51.268;6.534;2023-11-19T12:40:00;13.4;100
40528;DHT22;26230;51.268;6.534;2023-11-19T12:45:00;13.1;100
40528;DHT22;26230;51.268;6.534;2023-11-19T12:50:00;13.2;100
40528;DHT22;26230;51.268;6.534;2023-11-19T12:55:00;13.5;100
40528;DHT22;26230;51.268;6.534;2023-11-19T13:00:00;13.6;100
40528;DHT22;26230;51.268;6.534;2023-11-19T13:05:19;13.6;100
40528;DHT22;26230;51.268;6.534;2023-11-19T13:10:02;13.7;100
40528;DHT22;26230;51.268;6.534;2023-11-19T13:15:00;13.6;100
40528;DHT22;26230;51.268;6.534;2023-11-19T13:20:00;13.7;100
40528;DHT22;26230;51.268;6.534;2023-11-19T13:25:00;13.7;100
40528;DHT22;26230;51.268;6.534;2023-11-19T13:30:00;13.7;100
40528;DHT22;26230;51.268;6.534;2023-11-19T13:35:00;13.7;100
40528;DHT22;26230;51.268;6.534;2023-11-19T13:40:00;13.9;100
40528;DHT22;26230;51.268;6.534;2023-11-19T13:45:00;13.6;100
40528;DHT22;26230;51.268;6.534;2023-11-19T13:50:00;13.5;100
40528;DHT22;26230;51.268;6.534;2023-11-19T13:55:00;13.4;100
40528;DHT22;26230;51.268;6.534;2023-11-19T14:00:01;13.4;100
40528;DHT22;26230;51.268;6.534;2023-11-19T14:05:00;13.3;100
40528;DHT22;26230;51.268;6.534;2023-11-19T14:10:00;13.2;100
40528;DHT22;26230;51.268;6.534;2023-11-19T14:15:00;13.2;100
40528;DHT22;26230;51.268;6.534;2023-11-19T14:20:00;13.1;100
40528;DHT22;26230;51.268;6.534;2023-11-19T14:25:00;12.8;100
40528;DHT22;26230;51.268;6.534;2023-11-19T14:30:00;12.6;100
40528;DHT22;26230;51.268;6.534;2023-11-19T14:35:00;12.3;100
40528;DHT22;26230;51.268;6.534;2023-11-19T14:40:00;12.0;100
40528;DHT22;26230;51.268;6.534;2023-11-19T14:45:00;11.9;100
40528;DHT22;26230;51.268;6.534;2023-11-19T14:50:00;11.8;100
40528;DHT22;26230;51.268;6.534;2023-11-19T14:55:00;11.7;100
40528;DHT22;26230;51.268;6.534;2023-11-19T15:00:00;11.8;100
40528;DHT22;26230;51.268;6.534;2023-11-19T15:05:00;11.8;100
40528;DHT22;26230;51.268;6.534;2023-11-19T15:10:00;12.0;100
40528;DHT22;26230;51.268;6.534;2023-11-19T15:15:00;11.9;100
40528;DHT22;26230;51.268;6.534;2023-11-19T15:20:00;11.9;100
40528;DHT22;26230;51.268;6.534;2023-11-19T15:25:00;11.8;100
40528;DHT22;26230;51.268;6.534;2023-11-19T15:30:00;11.8;100
40528;DHT22;26230;51.268;6.534;2023-11-19T15:35:00;11.7;100
40528;DHT22;26230;51.268;6.534;2023-11-19T15:40:00;11.7;100
40528;DHT22;26230;51.268;6.534;2023-11-19T15:45:01;11.7;100
40528;DHT22;26230;51.268;6.534;2023-11-19T15:50:00;11.7;100
40528;DHT22;26230;51.268;6.534;2023-11-19T15:55:00;11.8;100
40528;DHT22;26230;51.268;6.534;2023-11-19T16:00:00;11.8;100
40528;DHT22;26230;51.268;6.534;2023-11-19T16:05:00;11.8;100
40528;DHT22;26230;51.268;6.534;2023-11-19T16:10:00;11.7;100
40528;DHT22;26230;51.268;6.534;2023-11-19T16:15:00;11.6;100
40528;DHT22;26230;51.268;6.534;2023-11-19T16:20:02;11.6;100
40528;DHT22;26230;51.268;6.534;2023-11-19T16:25:00;11.6;100
40528;DHT22;26230;51.268;6.534;2023-11-19T16:30:00;11.6;100
40528;DHT22;26230;51.268;6.534;2023-11-19T16:35:00;11.6;100
40528;DHT22;26230;51.268;6.534;2023-11-19T16:40:00;11.7;100
40528;DHT22;26230;51.268;6.534;2023-11-19T16:45:00;11.7;100
40528;DHT22;26230;51.268;6.534;2023-11-19T16:50:00;11.6;100
40528;DHT22;26230;51.268;6.534;2023-11-19T16:55:00;11.6;100
40528;DHT22;26230;51.268;6.534;2023-11-19T17:00:00;11.6;100
40528;DHT22;26230;51.268;6.534;2023-11-19T17:05:00;11.7;100
40528;DHT22;26230;51.268;6.534;2023-11-19T17:10:00;11.6;100
40528;DHT22;26230;51.268;6.534;2023-11-19T17:15:00;11.4;100
40528;DHT22;26230;51.268;6.534;2023-11-19T17:20:00;11.3;100
40528;DHT22;26230;51.268;6.534;2023-11-19T17:25:01;11.2;100
40528;DHT22;26230;51.268;6.534;2023-11-19T17:30:00;11.2;100
40528;DHT22;26230;51.268;6.534;2023-11-19T17:35:00;11.2;100
40528;DHT22;26230;51.268;6.534;2023-11-19T17:40:00;11.4;100
40528;DHT22;26230;51.268;6.534;2023-11-19T17:45:00;11.4;100
40528;DHT22;26230;51.268;6.534;2023-11-19T17:50:00;11.6;100
40528;DHT22;26230;51.268;6.534;2023-11-19T17:55:00;11.6;100
40528;DHT22;26230;51.268;6.534;2023-11-19T18:00:00;11.7;100
40528;DHT22;26230;51.268;6.534;2023-11-19T18:05:00;11.7;100
40528;DHT22;26230;51.268;6.534;2023-11-19T18:10:00;11.8;100
40528;DHT22;26230;51.268;6.534;2023-11-19T18:15:00;11.8;100
40528;DHT22;26230;51.268;6.534;2023-11-19T18:20:00;11.7;100
40528;DHT22;26230;51.268;6.534;2023-11-19T18:25:00;11.6;100
40528;DHT22;26230;51.268;6.534;2023-11-19T18:30:01;11.4;100
40528;DHT22;26230;51.268;6.534;2023-11-19T18:35:00;11.2;100
40528;DHT22;26230;51.268;6.534;2023-11-19T18:40:00;11.1;100
40528;DHT22;26230;51.268;6.534;2023-11-19T18:45:00;11.0;100
40528;DHT22;26230;51.268;6.534;2023-11-19T18:50:00;11.0;100
40528;DHT22;26230;51.268;6.534;2023-11-19T18:55:00;10.9;100
40528;DHT22;26230;51.268;6.534;2023-11-19T19:00:00;10.9;100
40528;DHT22;26230;51.268;6.534;2023-11-19T19:05:00;11.0;100
40528;DHT22;26230;51.268;6.534;2023-11-19T19:10:00;11.0;100
40528;DHT22;26230;51.268;6.534;2023-11-19T19:15:00;10.9;100
40528;DHT22;26230;51.268;6.534;2023-11-19T19:30:00;10.8;100
40528;DHT22;26230;51.268;6.534;2023-11-19T19:35:00;10.8;100
40528;DHT22;26230;51.268;6.534;2023-11-19T19:40:00;10.8;100
40528;DHT22;26230;51.268;6.534;2023-11-19T19:45:00;10.8;100
40528;DHT22;26230;51.268;6.534;2023-11-19T19:50:00;10.8;100
40528;DHT22;26230;51.268;6.534;2023-11-19T19:55:00;10.8;100
40528;DHT22;26230;51.268;6.534;2023-11-19T20:00:00;10.8;100
40528;DHT22;26230;51.268;6.534;2023-11-19T20:05:00;10.8;100
40528;DHT22;26230;51.268;6.534;2023-11-19T20:10:00;10.7;100
40528;DHT22;26230;51.268;6.534;2023-11-19T20:15:00;10.7;100
40528;DHT22;26230;51.268;6.534;2023-11-19T20:20:00;10.7;100
40528;DHT22;26230;51.268;6.534;2023-11-19T20:25:00;10.7;100
40528;DHT22;26230;51.268;6.534;2023-11-19T20:30:00;10.7;100
40528;DHT22;26230;51.268;6.534;2023-11-19T20:35:00;10.7;100
40528;DHT22;26230;51.268;6.534;2023-11-19T20:40:00;10.7;100
40528;DHT22;26230;51.268;6.534;2023-11-19T20:45:00;10.7;100
40528;DHT22;26230;51.268;6.534;2023-11-19T20:50:00;10.9;100
40528;DHT22;26230;51.268;6.534;2023-11-19T20:55:00;10.9;100
40528;DHT22;26230;51.268;6.534;2023-11-19T21:00:00;10.9;100
40528;DHT22;26230;51.268;6.534;2023-11-19T21:05:00;10.9;100
40528;DHT22;26230;51.268;6.534;2023-11-19T21:10:00;10.9;100
40528;DHT22;26230;51.268;6.534;2023-11-19T21:15:00;10.9;100
40528;DHT22;26230;51.268;6.534;2023-11-19T21:20:00;10.9;100
40528;DHT22;26230;51.268;6.534;2023-11-19T21:25:01;10.9;100
40528;DHT22;26230;51.268;6.534;2023-11-19T21:30:00;10.9;100
40528;DHT22;26230;51.268;6.534;2023-11-19T21:35:00;10.9;100
40528;DHT22;26230;51.268;6.534;2023-11-19T21:40:01;10.9;100
40528;DHT22;26230;51.268;6.534;2023-11-19T21:45:00;11.0;100
40528;DHT22;26230;51.268;6.534;2023-11-19T21:50:00;11.0;100
40528;DHT22;26230;51.268;6.534;2023-11-19T21:55:01;11.0;100
40528;DHT22;26230;51.268;6.534;2023-11-19T22:00:00;11.0;100
40528;DHT22;26230;51.268;6.534;2023-11-19T22:05:00;11.0;100
40528;DHT22;26230;51.268;6.534;2023-11-19T22:10:00;11.0;100
40528;DHT22;26230;51.268;6.534;2023-11-19T22:15:00;11.0;100
40528;DHT22;26230;51.268;6.534;2023-11-19T22:20:00;11.1;100
40528;DHT22;26230;51.268;6.534;2023-11-19T22:25:00;11.1;100
40528;DHT22;26230;51.268;6.534;2023-11-19T22:30:00;11.2;100
40528;DHT22;26230;51.268;6.534;2023-11-19T22:35:00;11.2;100
40528;DHT22;26230;51.268;6.534;2023-11-19T22:40:00;11.2;100
40528;DHT22;26230;51.268;6.534;2023-11-19T22:45:00;11.2;100
40528;DHT22;26230;51.268;6.534;2023-11-19T22:50:00;11.2;100
40528;DHT22;26230;51.268;6.534;2023-11-19T22:55:00;11.1;100
40528;DHT22;26230;51.268;6.534;2023-11-19T23:00:00;11.1;100
40528;DHT22;26230;51.268;6.534;2023-11-19T23:05:00;11.2;100
40528;DHT22;26230;51.268;6.534;2023-11-19T23:10:00;11.2;100
40528;DHT22;26230;51.268;6.534;2023-11-19T23:15:00;11.2;100
40528;DHT22;26230;51.268;6.534;2023-11-19T23:20:01;11.2;100
40528;DHT22;26230;51.268;6.534;2023-11-19T23:25:00;11.2;100
40528;DHT22;26230;51.268;6.534;2023-11-19T23:30:00;11.3;100
40528;DHT22;26230;51.268;6.534;2023-11-19T23:35:00;11.3;100
40528;DHT22;26230;51.268;6.534;2023-11-19T23:40:00;11.3;100
40528;DHT22;26230;51.268;6.534;2023-11-19T23:45:00;11.3;100
40528;DHT22;26230;51.268;6.534;2023-11-19T23:50:00;11.3;100
40528;DHT22;26230;51.268;6.534;2023-11-19T23:55:00;11.4;100
